createdAt,value
2022-08-18T00:00:27.382Z,45.30
2022-08-18T00:01:27.399Z,45.40
2022-08-18T00:02:30.038Z,45.60
2022-08-18T00:03:56.366Z,43.90
2022-08-18T00:04:35.789Z,41.00
2022-08-18T00:05:27.328Z,43.60
2022-08-18T00:06:28.275Z,47.50
2022-08-18T00:07:27.312Z,47.10
2022-08-18T00:08:27.303Z,45.20
2022-08-18T00:09:32.008Z,44.30
2022-08-18T00:10:27.279Z,46.10
2022-08-18T00:11:27.253Z,44.60
2022-08-18T00:12:27.275Z,48.50
2022-08-18T00:13:27.247Z,47.70
2022-08-18T00:14:27.239Z,47.30
2022-08-18T00:15:27.246Z,48.30
2022-08-18T00:16:27.204Z,47.50
2022-08-18T00:17:27.216Z,48.20
2022-08-18T00:18:27.184Z,50.10
2022-08-18T00:19:45.746Z,47.30
2022-08-18T00:20:27.165Z,47.70
2022-08-18T00:21:27.173Z,48.20
2022-08-18T00:22:27.176Z,45.70
2022-08-18T00:23:27.132Z,46.80
2022-08-18T00:24:27.119Z,48.60
2022-08-18T00:25:27.123Z,47.40
2022-08-18T00:26:27.114Z,47.70
2022-08-18T00:27:28.634Z,48.10
2022-08-18T00:28:27.099Z,47.30
2022-08-18T00:29:27.055Z,47.80
2022-08-18T00:30:27.074Z,47.50
2022-08-18T00:31:27.036Z,48.10
2022-08-18T00:32:27.028Z,47.60
2022-08-18T00:33:27.018Z,47.90
2022-08-18T00:34:27.003Z,48.20
2022-08-18T00:35:28.780Z,48.60
2022-08-18T00:36:26.989Z,48.30
2022-08-18T00:37:27.010Z,48.40
2022-08-18T00:38:26.994Z,48.00
2022-08-18T00:39:27.065Z,46.70
2022-08-18T00:40:26.980Z,47.10
2022-08-18T00:41:26.930Z,49.10
2022-08-18T00:42:30.679Z,47.60
2022-08-18T00:43:26.915Z,48.30
2022-08-18T00:44:26.905Z,47.80
2022-08-18T00:45:26.929Z,47.80
2022-08-18T00:48:52.458Z,46.00
2022-08-18T00:49:53.444Z,51.60
2022-08-18T00:50:53.410Z,50.50
2022-08-18T00:51:53.396Z,53.80
2022-08-18T00:52:53.392Z,53.00
2022-08-18T00:53:53.410Z,54.90
2022-08-18T00:54:53.432Z,55.80
2022-08-18T00:55:54.424Z,57.00
2022-08-18T00:56:53.360Z,55.60
2022-08-18T00:57:53.630Z,53.80
2022-08-18T00:58:53.338Z,55.70
2022-08-18T00:59:53.333Z,55.30
2022-08-18T01:00:53.392Z,53.10
2022-08-18T01:01:53.310Z,56.20
2022-08-18T01:02:53.283Z,55.10
2022-08-18T01:03:53.271Z,55.50
2022-08-18T01:04:53.260Z,56.50
2022-08-18T01:05:53.258Z,55.10
2022-08-18T01:06:53.257Z,52.40
2022-08-18T01:07:53.527Z,55.00
2022-08-18T01:08:53.249Z,56.80
2022-08-18T01:09:53.205Z,55.00
2022-08-18T01:10:53.200Z,54.50
2022-08-18T01:11:53.204Z,53.10
2022-08-18T01:12:53.196Z,55.00
2022-08-18T01:13:53.166Z,54.60
2022-08-18T01:14:53.149Z,55.10
2022-08-18T01:15:53.141Z,55.80
2022-08-18T01:16:55.321Z,57.10
2022-08-18T01:17:53.287Z,55.90
2022-08-18T01:18:53.104Z,58.60
2022-08-18T01:19:53.090Z,57.20
2022-08-18T01:20:53.084Z,57.90
2022-08-18T01:21:53.088Z,58.60
2022-08-18T01:22:53.081Z,56.50
2022-08-18T01:23:53.054Z,57.30
2022-08-18T01:24:53.039Z,59.40
2022-08-18T01:25:53.031Z,61.20
2022-08-18T01:26:53.011Z,61.50
2022-08-18T01:27:53.205Z,60.50
2022-08-18T01:28:53.021Z,59.60
2022-08-18T01:29:52.986Z,54.40
2022-08-18T01:30:52.986Z,59.50
2022-08-18T01:31:54.620Z,60.10
2022-08-18T01:32:52.950Z,58.60
2022-08-18T01:33:52.962Z,58.50
2022-08-18T01:34:52.926Z,59.30
2022-08-18T01:35:52.911Z,60.40
2022-08-18T01:36:52.973Z,60.00
2022-08-18T01:37:53.041Z,60.50
2022-08-18T01:38:52.916Z,59.60
2022-08-18T01:41:22.676Z,59.70
2022-08-18T01:41:23.964Z,58.40
2022-08-18T01:41:52.883Z,58.60
2022-08-18T01:42:52.844Z,59.50
2022-08-18T01:43:52.848Z,58.60
2022-08-18T01:44:52.823Z,58.50
2022-08-18T01:45:52.804Z,58.40
2022-08-18T01:46:52.798Z,59.10
2022-08-18T01:47:52.786Z,58.50
2022-08-18T01:48:52.801Z,58.20
2022-08-18T01:49:52.758Z,56.20
2022-08-18T01:50:52.756Z,57.60
2022-08-18T01:51:52.736Z,57.60
2022-08-18T01:52:52.746Z,59.10
2022-08-18T01:53:52.744Z,61.60
2022-08-18T01:54:52.712Z,59.40
2022-08-18T01:55:52.690Z,58.00
2022-08-18T01:56:52.685Z,60.20
2022-08-18T01:57:53.030Z,60.80
2022-08-18T01:58:52.685Z,59.30
2022-08-18T01:59:52.671Z,62.00
2022-08-18T02:00:52.654Z,59.70
2022-08-18T02:01:53.326Z,60.50
2022-08-18T02:02:57.990Z,61.60
2022-08-18T02:03:52.630Z,62.90
2022-08-18T02:04:52.605Z,65.00
2022-08-18T02:05:52.584Z,63.90
2022-08-18T02:06:52.578Z,62.30
2022-08-18T02:07:54.072Z,59.10
2022-08-18T02:08:53.790Z,60.30
2022-08-18T02:09:52.549Z,63.60
2022-08-18T02:10:52.556Z,61.20
2022-08-18T02:11:56.079Z,64.10
2022-08-18T02:12:52.544Z,63.80
2022-08-18T02:13:52.524Z,67.90
2022-08-18T02:14:52.491Z,68.10
2022-08-18T02:15:52.468Z,67.10
2022-08-18T02:16:52.466Z,67.60
2022-08-18T02:17:52.757Z,66.90
2022-08-18T02:18:52.450Z,67.40
2022-08-18T02:19:52.430Z,69.00
2022-08-18T02:20:52.420Z,69.50
2022-08-18T02:21:52.412Z,65.70
2022-08-18T02:22:52.427Z,68.10
2022-08-18T02:23:53.879Z,67.80
2022-08-18T02:24:52.375Z,72.20
2022-08-18T02:25:52.357Z,68.80
2022-08-18T02:26:52.376Z,70.40
2022-08-18T02:27:52.601Z,74.10
2022-08-18T02:28:52.334Z,70.50
2022-08-18T02:29:52.318Z,72.40
2022-08-18T02:30:52.301Z,72.60
2022-08-18T02:31:52.322Z,71.50
2022-08-18T02:32:52.316Z,76.20
2022-08-18T02:33:52.791Z,74.80
2022-08-18T02:34:52.272Z,74.00
2022-08-18T02:35:52.251Z,74.50
2022-08-18T02:36:52.267Z,79.40
2022-08-18T02:37:52.349Z,76.00
2022-08-18T02:38:58.694Z,77.50
2022-08-18T02:39:52.287Z,72.60
2022-08-18T02:40:52.204Z,76.20
2022-08-18T02:41:52.210Z,73.90
2022-08-18T02:42:52.177Z,79.10
2022-08-18T02:43:52.165Z,74.10
2022-08-18T02:44:52.163Z,73.10
2022-08-18T02:45:52.166Z,75.10
2022-08-18T02:46:52.128Z,79.70
2022-08-18T02:47:52.381Z,79.20
2022-08-18T02:50:01.105Z,72.60
2022-08-18T02:51:02.095Z,81.70
2022-08-18T02:52:02.098Z,82.20
2022-08-18T02:53:02.053Z,82.70
2022-08-18T02:54:02.039Z,83.10
2022-08-18T02:55:02.030Z,80.90
2022-08-18T02:56:02.016Z,79.70
2022-08-18T02:57:01.992Z,75.00
2022-08-18T02:58:02.017Z,79.40
2022-08-18T02:59:02.028Z,79.90
2022-08-18T03:00:02.055Z,73.10
2022-08-18T03:01:02.046Z,77.60
2022-08-18T03:02:01.942Z,77.40
2022-08-18T03:03:01.938Z,77.40
2022-08-18T03:04:01.932Z,81.20
2022-08-18T03:05:01.913Z,80.40
2022-08-18T03:06:01.891Z,82.30
2022-08-18T03:07:01.900Z,76.70
2022-08-18T03:08:01.869Z,81.10
2022-08-18T03:09:01.860Z,75.50
2022-08-18T03:10:31.852Z,77.20
2022-08-18T03:11:01.842Z,78.90
2022-08-18T03:12:01.857Z,74.90
2022-08-18T03:13:01.841Z,75.60
2022-08-18T03:14:01.829Z,79.90
2022-08-18T03:15:01.800Z,77.30
2022-08-18T03:16:01.790Z,79.50
2022-08-18T03:17:01.769Z,74.60
2022-08-18T03:18:01.797Z,76.30
2022-08-18T03:19:01.759Z,76.30
2022-08-18T03:20:01.735Z,77.10
2022-08-18T03:21:01.731Z,79.30
2022-08-18T03:22:02.889Z,79.60
2022-08-18T03:23:05.649Z,83.70
2022-08-18T03:24:02.745Z,80.10
2022-08-18T03:25:01.721Z,82.30
2022-08-18T03:26:01.675Z,80.10
2022-08-18T03:27:01.780Z,85.70
2022-08-18T03:28:01.651Z,82.00
2022-08-18T03:29:01.634Z,83.30
2022-08-18T03:30:01.658Z,79.90
2022-08-18T03:31:01.638Z,87.20
2022-08-18T03:32:01.601Z,88.60
2022-08-18T03:33:01.601Z,92.10
2022-08-18T03:34:01.638Z,83.50
2022-08-18T03:35:01.598Z,87.00
2022-08-18T03:36:01.570Z,85.60
2022-08-18T03:37:01.561Z,89.70
2022-08-18T03:38:01.553Z,88.50
2022-08-18T03:39:01.532Z,90.90
2022-08-18T03:40:01.685Z,92.70
2022-08-18T03:41:01.514Z,90.90
2022-08-18T03:42:02.195Z,93.20
2022-08-18T03:43:02.215Z,90.90
2022-08-18T03:44:01.468Z,91.40
2022-08-18T03:45:12.481Z,91.70
2022-08-18T03:46:01.459Z,97.50
2022-08-18T03:47:01.458Z,95.80
2022-08-18T03:48:01.439Z,96.80
2022-08-18T03:49:01.410Z,95.60
2022-08-18T03:50:01.425Z,99.20
2022-08-18T03:51:05.181Z,94.90
2022-08-18T03:52:01.610Z,93.10
2022-08-18T03:53:01.386Z,94.60
2022-08-18T03:54:01.363Z,99.00
2022-08-18T03:55:02.804Z,102.80
2022-08-18T03:56:01.346Z,92.50
2022-08-18T03:57:01.331Z,108.60
2022-08-18T03:58:01.318Z,103.60
2022-08-18T03:59:01.305Z,105.30
2022-08-18T04:00:01.313Z,99.80
2022-08-18T04:01:01.334Z,109.10
2022-08-18T04:02:01.294Z,100.10
2022-08-18T04:03:01.264Z,102.00
2022-08-18T04:04:01.275Z,115.70
2022-08-18T04:05:01.263Z,123.60
2022-08-18T04:06:01.234Z,118.50
2022-08-18T04:07:01.221Z,121.20
2022-08-18T04:08:01.207Z,117.30
2022-08-18T04:09:01.203Z,130.70
2022-08-18T04:10:01.221Z,122.80
2022-08-18T04:11:01.569Z,121.60
2022-08-18T04:12:01.161Z,123.70
2022-08-18T04:13:01.165Z,136.10
2022-08-18T04:14:02.460Z,122.10
2022-08-18T04:15:01.162Z,125.10
2022-08-18T04:16:01.121Z,118.90
2022-08-18T04:17:01.115Z,116.00
2022-08-18T04:18:04.089Z,122.00
2022-08-18T04:19:01.077Z,123.30
2022-08-18T04:20:01.091Z,110.50
2022-08-18T04:21:01.061Z,120.60
2022-08-18T04:22:01.048Z,116.60
2022-08-18T04:23:01.035Z,115.20
2022-08-18T04:24:01.020Z,116.30
2022-08-18T04:25:01.008Z,120.90
2022-08-18T04:26:01.010Z,114.50
2022-08-18T04:27:00.996Z,114.30
2022-08-18T04:28:00.979Z,119.40
2022-08-18T04:29:00.966Z,111.30
2022-08-18T04:30:00.958Z,116.30
2022-08-18T04:31:00.960Z,114.00
2022-08-18T04:32:00.930Z,116.30
2022-08-18T04:33:00.923Z,117.00
2022-08-18T04:34:00.920Z,116.40
2022-08-18T04:35:02.974Z,111.60
2022-08-18T04:36:00.899Z,131.30
2022-08-18T04:37:00.921Z,115.10
2022-08-18T04:38:00.870Z,118.80
2022-08-18T04:39:00.853Z,124.70
2022-08-18T04:40:00.927Z,123.80
2022-08-18T04:41:00.830Z,123.40
2022-08-18T04:42:00.849Z,116.00
2022-08-18T04:43:00.816Z,123.50
2022-08-18T04:44:00.817Z,130.20
2022-08-18T04:45:00.786Z,126.90
2022-08-18T04:46:00.803Z,126.70
2022-08-18T04:47:00.792Z,122.50
2022-08-18T04:48:00.788Z,126.70
2022-08-18T04:49:00.756Z,127.00
2022-08-18T04:52:36.333Z,109.70
2022-08-18T04:52:54.453Z,123.20
2022-08-18T04:53:54.440Z,129.10
2022-08-18T04:54:54.424Z,122.40
2022-08-18T04:55:54.412Z,124.60
2022-08-18T04:56:54.397Z,133.00
2022-08-18T04:57:54.413Z,129.80
2022-08-18T04:58:54.374Z,130.40
2022-08-18T04:59:54.368Z,135.90
2022-08-18T05:00:54.427Z,154.10
2022-08-18T05:01:54.353Z,143.80
2022-08-18T05:02:54.365Z,143.80
2022-08-18T05:03:54.323Z,139.00
2022-08-18T05:04:54.317Z,143.10
2022-08-18T05:05:54.305Z,145.40
2022-08-18T05:06:54.291Z,139.40
2022-08-18T05:07:54.409Z,139.30
2022-08-18T05:08:54.276Z,139.10
2022-08-18T05:09:54.257Z,132.50
2022-08-18T05:10:54.248Z,131.70
2022-08-18T05:11:54.239Z,129.00
2022-08-18T05:12:54.252Z,131.30
2022-08-18T05:13:54.234Z,126.00
2022-08-18T05:14:54.210Z,128.40
2022-08-18T05:16:10.074Z,119.70
2022-08-18T05:16:54.182Z,141.50
2022-08-18T05:17:54.416Z,141.40
2022-08-18T05:18:54.158Z,140.50
2022-08-18T05:19:54.151Z,139.40
2022-08-18T05:20:54.181Z,135.90
2022-08-18T05:21:54.139Z,124.60
2022-08-18T05:22:54.139Z,122.90
2022-08-18T05:23:54.098Z,124.60
2022-08-18T05:24:54.088Z,123.30
2022-08-18T05:25:54.087Z,118.10
2022-08-18T05:26:54.068Z,114.60
2022-08-18T05:27:54.152Z,116.50
2022-08-18T05:29:04.260Z,113.40
2022-08-18T05:29:54.041Z,113.20
2022-08-18T05:30:54.060Z,114.00
2022-08-18T05:31:54.013Z,113.80
2022-08-18T05:32:54.019Z,114.20
2022-08-18T05:33:54.014Z,111.20
2022-08-18T05:34:53.976Z,109.20
2022-08-18T05:35:53.966Z,116.40
2022-08-18T05:36:53.955Z,117.30
2022-08-18T05:37:54.077Z,122.30
2022-08-18T05:38:53.935Z,121.40
2022-08-18T05:39:53.974Z,111.90
2022-08-18T05:40:53.909Z,117.40
2022-08-18T05:41:53.906Z,113.90
2022-08-18T05:42:53.882Z,114.20
2022-08-18T05:43:53.949Z,118.50
2022-08-18T05:44:53.874Z,113.20
2022-08-18T05:45:53.876Z,110.40
2022-08-18T05:46:53.911Z,118.40
2022-08-18T05:47:53.926Z,114.70
2022-08-18T05:48:53.843Z,122.70
2022-08-18T05:49:53.808Z,117.50
2022-08-18T05:50:53.835Z,116.30
2022-08-18T05:51:53.783Z,119.70
2022-08-18T05:52:53.776Z,116.70
2022-08-18T05:53:53.797Z,114.40
2022-08-18T05:54:53.770Z,115.50
2022-08-18T05:55:53.799Z,115.20
2022-08-18T05:56:53.845Z,112.10
2022-08-18T05:57:53.907Z,107.10
2022-08-18T05:58:53.727Z,108.80
2022-08-18T05:59:53.744Z,110.20
2022-08-18T06:00:57.467Z,103.90
2022-08-18T06:01:53.729Z,105.30
2022-08-18T06:02:53.727Z,98.50
2022-08-18T06:03:53.684Z,96.40
2022-08-18T06:04:53.645Z,104.80
2022-08-18T06:06:14.192Z,96.60
2022-08-18T06:07:02.008Z,94.70
2022-08-18T06:08:18.561Z,98.10
2022-08-18T06:12:37.255Z,93.40
2022-08-18T06:13:02.057Z,97.70
2022-08-18T06:13:02.085Z,86.60
2022-08-18T06:14:03.065Z,93.80
2022-08-18T06:15:06.333Z,93.40
2022-08-18T06:16:03.009Z,94.30
2022-08-18T06:17:03.007Z,99.50
2022-08-18T06:18:03.010Z,96.90
2022-08-18T06:19:02.967Z,84.20
2022-08-18T06:20:02.959Z,88.50
2022-08-18T06:21:02.943Z,86.10
2022-08-18T06:22:02.940Z,84.60
2022-08-18T06:23:02.966Z,85.10
2022-08-18T06:24:02.931Z,86.70
2022-08-18T06:25:03.285Z,88.20
2022-08-18T06:26:02.928Z,83.00
2022-08-18T06:27:02.901Z,87.00
2022-08-18T06:28:02.900Z,85.00
2022-08-18T06:29:03.133Z,87.90
2022-08-18T06:30:02.884Z,84.20
2022-08-18T06:31:02.928Z,85.00
2022-08-18T06:32:02.833Z,79.50
2022-08-18T06:33:02.839Z,82.50
2022-08-18T06:34:02.885Z,79.40
2022-08-18T06:35:02.911Z,79.50
2022-08-18T06:36:02.794Z,80.50
2022-08-18T06:37:02.770Z,82.50
2022-08-18T06:38:02.810Z,82.00
2022-08-18T06:39:02.759Z,76.30
2022-08-18T06:40:02.880Z,79.70
2022-08-18T06:41:02.737Z,77.70
2022-08-18T06:42:02.717Z,76.00
2022-08-18T06:43:02.767Z,77.10
2022-08-18T06:44:02.697Z,77.30
2022-08-18T06:45:02.688Z,73.60
2022-08-18T06:46:02.690Z,74.60
2022-08-18T06:47:02.834Z,79.50
2022-08-18T06:48:02.721Z,78.40
2022-08-18T06:49:02.713Z,79.00
2022-08-18T06:50:02.647Z,76.40
2022-08-18T06:51:02.662Z,75.50
2022-08-18T06:52:02.681Z,77.10
2022-08-18T06:53:02.635Z,72.80
2022-08-18T06:54:02.599Z,70.00
2022-08-18T06:55:02.575Z,69.30
2022-08-18T06:56:02.631Z,69.80
2022-08-18T06:58:51.207Z,66.80
2022-08-18T07:01:41.118Z,55.40
2022-08-18T07:10:22.635Z,56.20
2022-08-18T07:10:49.299Z,50.20
2022-08-18T07:10:53.397Z,54.90
2022-08-18T07:10:55.443Z,56.60
2022-08-18T07:14:17.581Z,51.60
2022-08-18T07:22:39.211Z,44.40
2022-08-18T07:22:39.566Z,45.40
2022-08-18T07:23:00.440Z,46.30
2022-08-18T07:23:18.302Z,40.30
2022-08-18T07:24:21.168Z,45.50
2022-08-18T07:24:25.695Z,46.80
2022-08-18T07:25:18.270Z,44.50
2022-08-18T07:26:18.274Z,44.10
2022-08-18T07:27:18.254Z,45.90
2022-08-18T07:28:18.294Z,45.10
2022-08-18T07:29:18.236Z,45.10
2022-08-18T07:30:18.231Z,47.10
2022-08-18T07:31:18.196Z,44.80
2022-08-18T07:32:20.953Z,45.10
2022-08-18T07:33:18.211Z,45.00
2022-08-18T07:34:18.197Z,46.80
2022-08-18T07:35:18.161Z,45.30
2022-08-18T07:36:18.273Z,51.80
2022-08-18T07:37:18.136Z,51.30
2022-08-18T07:38:41.350Z,49.40
2022-08-18T07:39:18.142Z,49.50
2022-08-18T07:40:18.152Z,53.00
2022-08-18T07:41:18.090Z,50.40
2022-08-18T07:42:54.093Z,51.50
2022-08-18T07:43:18.100Z,55.30
2022-08-18T07:44:18.059Z,55.10
2022-08-18T07:45:18.049Z,55.80
2022-08-18T07:46:18.039Z,53.70
2022-08-18T07:47:18.027Z,55.80
2022-08-18T07:48:37.525Z,53.40
2022-08-18T07:49:21.841Z,61.10
2022-08-18T07:50:36.281Z,60.20
2022-08-18T07:51:17.986Z,59.10
2022-08-18T07:52:36.368Z,60.60
2022-08-18T07:53:17.991Z,63.00
2022-08-18T07:54:45.472Z,62.30
2022-08-18T07:55:18.436Z,64.10
2022-08-18T07:57:24.990Z,61.80
2022-08-18T08:02:27.523Z,66.40
2022-08-18T08:03:54.509Z,67.20
2022-08-18T08:04:06.229Z,66.00
2022-08-18T08:04:25.655Z,66.40
2022-08-18T08:04:57.421Z,61.90
2022-08-18T08:07:49.113Z,59.00
2022-08-18T08:09:21.658Z,72.00
2022-08-18T08:13:09.351Z,59.50
2022-08-18T08:19:11.222Z,68.10
2022-08-18T08:19:17.604Z,68.80
2022-08-18T08:20:02.852Z,65.70
2022-08-18T23:09:12.502Z,5.70
2022-08-18T23:10:13.909Z,6.20
2022-08-18T23:11:13.165Z,6.20
2022-08-18T23:12:13.158Z,7.00
2022-08-18T23:13:13.157Z,7.10
2022-08-18T23:14:13.184Z,7.90
2022-08-18T23:15:13.120Z,6.60
2022-08-18T23:16:30.515Z,6.80
2022-08-18T23:17:13.101Z,7.10
2022-08-18T23:18:13.085Z,7.90
2022-08-18T23:19:13.106Z,6.80
2022-08-18T23:20:17.815Z,6.30
2022-08-18T23:21:13.058Z,6.80
2022-08-18T23:22:13.042Z,6.50
2022-08-18T23:23:13.046Z,7.00
2022-08-18T23:24:13.020Z,6.50
2022-08-18T23:25:13.050Z,6.60
2022-08-18T23:26:13.017Z,7.20
2022-08-18T23:27:12.995Z,7.20
2022-08-18T23:28:12.975Z,6.80
2022-08-18T23:29:12.962Z,6.10
2022-08-18T23:30:12.967Z,6.60
2022-08-18T23:31:12.947Z,7.30
2022-08-18T23:32:12.957Z,7.10
2022-08-18T23:33:12.923Z,7.40
2022-08-18T23:34:12.911Z,7.60
2022-08-18T23:35:12.902Z,6.60
2022-08-18T23:36:12.899Z,7.10
2022-08-18T23:37:12.905Z,8.20
2022-08-18T23:38:12.976Z,8.00
2022-08-18T23:39:12.856Z,7.90
2022-08-18T23:40:12.924Z,6.70
2022-08-18T23:41:12.845Z,6.80
2022-08-18T23:42:12.874Z,8.30
2022-08-18T23:43:12.815Z,7.00
2022-08-18T23:44:12.800Z,7.90
2022-08-18T23:45:12.788Z,6.70
2022-08-18T23:46:12.778Z,6.20
2022-08-18T23:47:12.793Z,7.20
2022-08-18T23:48:12.757Z,8.10
2022-08-18T23:49:12.745Z,7.00
2022-08-18T23:50:12.738Z,8.30
2022-08-18T23:51:12.721Z,7.10
2022-08-18T23:52:12.731Z,9.20
2022-08-18T23:53:12.698Z,6.40
2022-08-18T23:54:12.688Z,6.80
2022-08-18T23:55:12.678Z,8.10
2022-08-18T23:56:12.673Z,6.70
2022-08-18T23:57:12.687Z,6.90
2022-08-18T23:58:12.647Z,7.60
2022-08-18T23:59:12.640Z,8.10
